createdAt,value
2022-08-04T00:00:52.729Z,25.50
2022-08-04T00:03:24.255Z,25.50
2022-08-04T00:06:02.356Z,25.50
2022-08-04T00:08:43.029Z,25.40
2022-08-04T00:11:17.072Z,25.40
2022-08-04T00:14:02.546Z,25.40
2022-08-04T00:16:37.713Z,25.30
2022-08-04T00:19:11.732Z,25.30
2022-08-04T00:21:43.494Z,25.30
2022-08-04T00:24:14.149Z,25.30
2022-08-04T00:26:45.623Z,25.30
2022-08-04T00:29:14.135Z,25.20
2022-08-04T00:31:55.966Z,25.20
2022-08-04T00:34:28.045Z,25.20
2022-08-04T00:36:57.370Z,25.10
2022-08-04T00:39:26.670Z,25.10
2022-08-04T00:42:30.028Z,25.10
2022-08-04T00:46:10.708Z,25.10
2022-08-04T00:48:38.930Z,25.00
2022-08-04T00:51:27.016Z,25.00
2022-08-04T00:54:03.374Z,24.90
2022-08-04T00:56:53.843Z,24.80
2022-08-04T00:59:37.236Z,24.80
2022-08-04T01:02:18.334Z,24.70
2022-08-04T01:04:51.299Z,24.70
2022-08-04T01:07:46.670Z,24.50
2022-08-04T01:10:27.457Z,24.50
2022-08-04T01:13:18.578Z,24.40
2022-08-04T01:16:00.487Z,24.40
2022-08-04T01:18:37.116Z,24.40
2022-08-04T01:21:35.956Z,24.40
2022-08-04T01:24:39.935Z,24.40
2022-08-04T01:27:20.019Z,24.40
2022-08-04T01:29:57.091Z,24.40
2022-08-04T01:32:29.155Z,24.30
2022-08-04T01:35:03.260Z,24.20
2022-08-04T01:37:48.274Z,24.20
2022-08-04T01:40:18.142Z,24.20
2022-08-04T01:42:47.737Z,24.20
2022-08-04T01:45:17.356Z,24.20
2022-08-04T01:47:51.629Z,24.10
2022-08-04T01:50:20.374Z,24.00
2022-08-04T01:52:51.219Z,23.90
2022-08-04T01:55:19.904Z,23.90
2022-08-04T01:57:50.335Z,23.80
2022-08-04T02:00:21.749Z,23.80
2022-08-04T02:02:51.647Z,23.70
2022-08-04T02:05:22.521Z,23.80
2022-08-04T02:08:14.077Z,23.70
2022-08-04T02:10:58.331Z,23.80
2022-08-04T02:13:33.101Z,23.80
2022-08-04T02:16:09.510Z,23.80
2022-08-04T02:18:48.210Z,23.70
2022-08-04T02:21:21.344Z,23.70
2022-08-04T02:24:06.837Z,23.60
2022-08-04T02:26:36.538Z,23.50
2022-08-04T02:29:12.189Z,23.40
2022-08-04T02:31:49.375Z,23.40
2022-08-04T02:34:24.528Z,23.30
2022-08-04T02:36:53.938Z,23.20
2022-08-04T02:39:24.243Z,23.20
2022-08-04T02:41:55.486Z,23.20
2022-08-04T02:44:24.911Z,23.20
2022-08-04T02:46:55.632Z,23.20
2022-08-04T02:49:25.004Z,23.20
2022-08-04T02:52:02.574Z,23.20
2022-08-04T02:54:36.227Z,23.20
2022-08-04T02:57:09.459Z,23.20
2022-08-04T02:59:53.995Z,23.20
2022-08-04T03:02:34.024Z,23.10
2022-08-04T03:05:08.442Z,23.00
2022-08-04T03:08:31.231Z,23.00
2022-08-04T03:11:17.251Z,22.90
2022-08-04T03:14:21.400Z,23.00
2022-08-04T03:17:24.940Z,23.00
2022-08-04T03:20:35.709Z,23.00
2022-08-04T03:23:30.696Z,23.00
2022-08-04T03:26:22.364Z,23.00
2022-08-04T03:29:23.604Z,23.00
2022-08-04T03:32:40.088Z,23.00
2022-08-04T03:35:44.324Z,23.00
2022-08-04T03:38:40.760Z,23.00
2022-08-04T03:41:55.257Z,22.90
2022-08-04T03:45:23.065Z,23.00
2022-08-04T03:48:10.672Z,23.00
2022-08-04T03:51:35.204Z,23.00
2022-08-04T03:54:47.020Z,23.00
2022-08-04T03:57:48.715Z,22.90
2022-08-04T04:00:19.961Z,22.80
2022-08-04T04:03:28.701Z,22.50
2022-08-04T04:06:36.273Z,22.00
2022-08-04T04:09:48.517Z,22.00
2022-08-04T04:12:50.883Z,22.30
2022-08-04T04:15:39.532Z,22.40
2022-08-04T04:18:24.872Z,22.50
2022-08-04T04:21:20.784Z,22.60
2022-08-04T04:24:26.057Z,22.60
2022-08-04T04:27:11.106Z,22.50
2022-08-04T04:30:07.854Z,22.50
2022-08-04T04:32:59.700Z,22.40
2022-08-04T04:35:34.876Z,22.40
2022-08-04T04:38:31.175Z,22.40
2022-08-04T04:41:06.831Z,22.30
2022-08-04T04:44:02.266Z,22.40
2022-08-04T04:46:40.065Z,22.40
2022-08-04T04:49:18.471Z,22.40
2022-08-04T04:51:56.285Z,22.40
2022-08-04T04:54:34.448Z,22.40
2022-08-04T04:57:11.283Z,22.40
2022-08-04T04:59:50.767Z,22.40
2022-08-04T05:02:46.666Z,22.40
2022-08-04T05:06:00.820Z,22.40
2022-08-04T05:08:47.454Z,22.40
2022-08-04T05:11:49.931Z,22.40
2022-08-04T05:14:36.728Z,22.40
2022-08-04T05:17:20.189Z,22.40
2022-08-04T05:19:57.525Z,22.40
2022-08-04T05:22:30.838Z,22.50
2022-08-04T05:25:05.592Z,22.50
2022-08-04T05:27:40.410Z,22.40
2022-08-04T05:30:10.279Z,22.40
2022-08-04T05:32:47.860Z,22.50
2022-08-04T05:35:47.767Z,22.60
2022-08-04T05:38:13.563Z,22.70
2022-08-04T05:40:43.505Z,22.80
2022-08-04T05:43:12.737Z,22.80
2022-08-04T05:45:43.440Z,22.80
2022-08-04T05:48:13.352Z,22.80
2022-08-04T05:50:41.772Z,22.80
2022-08-04T05:53:12.556Z,22.90
2022-08-04T05:55:58.045Z,23.00
2022-08-04T05:58:30.950Z,22.90
2022-08-04T06:01:01.890Z,22.90
2022-08-04T06:03:35.516Z,23.00
2022-08-04T06:06:05.712Z,23.00
2022-08-04T06:08:34.232Z,23.00
2022-08-04T06:11:06.670Z,23.20
2022-08-04T06:13:48.743Z,23.30
2022-08-04T06:16:29.775Z,23.30
2022-08-04T06:20:00.959Z,23.40
2022-08-04T06:21:56.768Z,23.40
2022-08-04T06:24:30.037Z,23.50
2022-08-04T06:26:59.018Z,23.50
2022-08-04T06:29:34.440Z,23.60
2022-08-04T06:32:30.010Z,23.70
2022-08-04T06:35:05.341Z,23.80
2022-08-04T06:37:43.142Z,23.80
2022-08-04T06:40:30.486Z,24.00
2022-08-04T06:43:01.796Z,24.00
2022-08-04T06:45:30.735Z,24.10
2022-08-04T06:48:01.355Z,24.20
2022-08-04T06:51:25.592Z,24.30
2022-08-04T06:53:21.078Z,24.40
2022-08-04T06:55:50.507Z,24.40
2022-08-04T06:58:20.178Z,24.50
2022-08-04T07:00:49.597Z,24.70
2022-08-04T07:03:21.623Z,24.90
2022-08-04T07:05:53.408Z,25.00
2022-08-04T07:08:23.051Z,25.10
2022-08-04T07:10:53.241Z,25.20
2022-08-04T07:13:23.361Z,25.10
2022-08-04T07:15:52.239Z,25.20
2022-08-04T07:18:20.515Z,25.30
2022-08-04T07:20:50.428Z,25.30
2022-08-04T07:23:25.240Z,25.30
2022-08-04T07:26:11.095Z,25.40
2022-08-04T07:28:41.785Z,25.40
2022-08-04T07:31:33.831Z,25.40
2022-08-04T07:34:11.544Z,25.50
2022-08-04T07:36:52.918Z,25.50
2022-08-04T07:39:28.645Z,25.60
2022-08-04T07:41:59.467Z,25.80
2022-08-04T07:44:31.180Z,26.00
2022-08-04T07:46:59.847Z,26.10
2022-08-04T07:49:54.487Z,26.10
2022-08-04T07:52:18.298Z,26.10
2022-08-04T07:54:47.674Z,26.20
2022-08-04T07:57:19.475Z,26.30
2022-08-04T08:00:08.749Z,26.40
2022-08-04T08:02:40.725Z,26.60
2022-08-04T08:05:11.464Z,26.80
2022-08-04T08:07:50.520Z,26.80
2022-08-04T08:10:23.765Z,26.80
2022-08-04T08:12:53.157Z,26.90
2022-08-04T08:15:22.296Z,27.10
2022-08-04T08:17:58.640Z,27.30
2022-08-04T08:20:32.892Z,27.20
2022-08-04T08:23:03.671Z,27.50
2022-08-04T08:25:33.345Z,27.60
2022-08-04T08:28:03.572Z,27.80
2022-08-04T08:30:32.991Z,27.80
2022-08-04T08:33:07.536Z,27.70
2022-08-04T08:35:49.969Z,27.70
2022-08-04T08:38:34.551Z,27.80
2022-08-04T08:41:34.823Z,27.90
2022-08-04T08:44:36.277Z,28.10
2022-08-04T08:47:21.072Z,28.00
2022-08-04T08:50:04.633Z,28.10
2022-08-04T08:53:02.501Z,28.20
2022-08-04T08:55:44.010Z,28.50
2022-08-04T08:58:34.592Z,29.00
2022-08-04T09:01:22.133Z,29.20
2022-08-04T09:04:22.870Z,29.20
2022-08-04T09:07:11.523Z,29.30
2022-08-04T09:09:54.664Z,29.40
2022-08-04T09:12:32.103Z,29.60
2022-08-04T09:15:06.554Z,29.70
2022-08-04T09:17:42.215Z,29.70
2022-08-04T09:20:20.230Z,29.80
2022-08-04T09:22:53.176Z,30.00
2022-08-04T09:25:25.674Z,30.10
2022-08-04T09:28:00.671Z,30.20
2022-08-04T09:30:41.133Z,30.30
2022-08-04T09:33:45.795Z,30.50
2022-08-04T09:36:25.704Z,30.50
2022-08-04T09:39:16.032Z,30.50
2022-08-04T09:41:54.711Z,30.80
2022-08-04T09:44:48.952Z,30.90
2022-08-04T09:47:26.186Z,30.90
2022-08-04T09:50:19.730Z,31.00
2022-08-04T09:52:57.682Z,31.00
2022-08-04T09:55:53.380Z,31.10
2022-08-04T09:58:32.239Z,31.20
2022-08-04T10:01:04.999Z,31.50
2022-08-04T10:03:36.879Z,31.50
2022-08-04T10:06:13.620Z,31.50
2022-08-04T10:09:00.339Z,31.70
2022-08-04T10:11:54.543Z,31.80
2022-08-04T10:14:38.688Z,31.90
2022-08-04T10:17:21.001Z,32.00
2022-08-04T10:19:57.453Z,31.90
2022-08-04T10:22:44.786Z,32.00
2022-08-04T10:26:03.706Z,32.20
2022-08-04T10:28:24.395Z,32.10
2022-08-04T10:30:58.909Z,32.20
2022-08-04T10:33:34.108Z,32.40
2022-08-04T10:36:05.573Z,32.20
2022-08-04T10:38:40.740Z,32.30
2022-08-04T10:41:14.428Z,32.30
2022-08-04T10:43:50.641Z,32.50
2022-08-04T10:46:22.444Z,32.70
2022-08-04T10:48:57.915Z,32.90
2022-08-04T10:51:58.343Z,33.20
2022-08-04T10:54:45.181Z,33.30
2022-08-04T10:57:20.969Z,33.30
2022-08-04T10:59:59.046Z,33.30
2022-08-04T11:02:46.415Z,33.20
2022-08-04T11:05:25.543Z,33.20
2022-08-04T11:07:59.133Z,33.30
2022-08-04T11:10:32.312Z,33.30
2022-08-04T11:13:06.089Z,33.20
2022-08-04T11:15:39.415Z,33.20
2022-08-04T11:18:16.205Z,33.40
2022-08-04T11:20:54.070Z,33.40
2022-08-04T11:23:27.483Z,33.70
2022-08-04T11:26:01.854Z,33.70
2022-08-04T11:28:43.708Z,33.70
2022-08-04T11:31:16.995Z,33.90
2022-08-04T11:33:57.983Z,33.90
2022-08-04T11:36:35.458Z,34.00
2022-08-04T11:39:11.353Z,34.30
2022-08-04T11:41:48.135Z,34.40
2022-08-04T11:44:25.517Z,34.40
2022-08-04T11:46:58.245Z,34.20
2022-08-04T11:49:56.140Z,34.10
2022-08-04T11:52:25.343Z,34.10
2022-08-04T11:54:55.343Z,34.20
2022-08-04T11:57:35.371Z,34.00
2022-08-04T12:00:10.063Z,34.00
2022-08-04T12:03:07.572Z,34.30
2022-08-04T12:05:42.724Z,34.50
2022-08-04T12:08:30.655Z,34.30
2022-08-04T12:11:14.689Z,34.30
2022-08-04T12:13:50.178Z,34.70
2022-08-04T12:16:24.336Z,35.00
2022-08-04T12:19:03.097Z,35.30
2022-08-04T12:21:36.770Z,35.60
2022-08-04T12:24:14.352Z,35.60
2022-08-04T12:26:46.376Z,35.40
2022-08-04T12:29:16.676Z,35.30
2022-08-04T12:31:49.421Z,35.10
2022-08-04T12:34:29.943Z,35.00
2022-08-04T12:37:06.068Z,35.10
2022-08-04T12:40:27.892Z,34.90
2022-08-04T12:42:35.164Z,35.00
2022-08-04T12:45:09.996Z,35.00
2022-08-04T12:47:40.193Z,35.00
2022-08-04T12:50:11.811Z,35.30
2022-08-04T12:55:37.211Z,35.30
2022-08-04T12:58:14.973Z,35.30
2022-08-04T13:00:47.201Z,35.30
2022-08-04T13:03:19.730Z,35.40
2022-08-04T13:05:50.074Z,35.30
2022-08-04T13:08:22.051Z,35.40
2022-08-04T13:10:58.780Z,35.50
2022-08-04T13:13:30.136Z,35.70
2022-08-04T13:16:00.152Z,35.60
2022-08-04T13:18:31.998Z,35.70
2022-08-04T13:21:20.432Z,35.50
2022-08-04T13:24:18.983Z,35.60
2022-08-04T13:26:55.488Z,35.60
2022-08-04T13:30:00.675Z,35.60
2022-08-04T13:32:20.404Z,35.80
2022-08-04T13:34:52.830Z,36.00
2022-08-04T13:37:26.557Z,36.30
2022-08-04T13:39:56.804Z,36.20
2022-08-04T13:42:29.520Z,36.30
2022-08-04T13:45:00.604Z,36.20
2022-08-04T13:47:33.513Z,36.30
2022-08-04T13:50:14.791Z,36.20
2022-08-04T13:52:44.176Z,36.30
2022-08-04T13:55:21.570Z,35.90
2022-08-04T13:57:55.905Z,36.00
2022-08-04T14:00:29.206Z,36.20
2022-08-04T14:03:03.493Z,36.20
2022-08-04T14:06:09.341Z,35.80
2022-08-04T14:08:47.923Z,35.80
2022-08-04T14:12:07.059Z,35.90
2022-08-04T14:14:17.280Z,35.80
2022-08-04T14:16:59.509Z,35.80
2022-08-04T14:19:35.899Z,36.00
2022-08-04T14:22:05.449Z,35.90
2022-08-04T14:24:33.923Z,35.90
2022-08-04T14:27:02.846Z,36.00
2022-08-04T14:29:41.883Z,35.90
2022-08-04T14:32:14.326Z,35.90
2022-08-04T14:34:45.945Z,35.90
2022-08-04T14:37:20.606Z,35.80
2022-08-04T14:40:17.542Z,35.90
2022-08-04T14:42:44.003Z,36.00
2022-08-04T14:45:13.731Z,36.00
2022-08-04T14:47:52.544Z,35.90
2022-08-04T14:50:33.761Z,35.90
2022-08-04T14:53:05.588Z,36.20
2022-08-04T14:55:34.264Z,36.20
2022-08-04T14:58:36.459Z,36.20
2022-08-04T15:00:54.241Z,36.30
2022-08-04T15:03:22.983Z,36.00
2022-08-04T15:06:01.850Z,36.20
2022-08-04T15:08:33.185Z,36.20
2022-08-04T15:11:03.007Z,36.10
2022-08-04T15:13:32.305Z,36.00
2022-08-04T15:16:08.137Z,36.20
2022-08-04T15:18:39.017Z,36.10
2022-08-04T15:21:08.998Z,36.20
2022-08-04T15:23:40.286Z,36.20
2022-08-04T15:26:15.972Z,36.00
2022-08-04T15:28:59.707Z,36.10
2022-08-04T15:32:07.132Z,36.20
2022-08-04T15:34:23.756Z,36.20
2022-08-04T15:36:56.913Z,36.10
2022-08-04T15:39:36.741Z,36.00
2022-08-04T15:42:21.286Z,36.10
2022-08-04T15:45:19.097Z,36.00
2022-08-04T15:48:33.189Z,36.00
2022-08-04T15:51:05.304Z,36.00
2022-08-04T15:54:23.291Z,36.00
2022-08-04T15:57:02.333Z,36.10
2022-08-04T16:00:03.467Z,36.20
2022-08-04T16:02:44.810Z,36.20
2022-08-04T16:05:37.084Z,36.10
2022-08-04T16:08:16.505Z,36.10
2022-08-04T16:10:48.554Z,36.20
2022-08-04T16:13:19.931Z,36.10
2022-08-04T16:15:53.643Z,36.10
2022-08-04T16:18:39.105Z,36.00
2022-08-04T16:21:20.063Z,36.00
2022-08-04T16:24:16.581Z,36.00
2022-08-04T16:26:56.194Z,36.00
2022-08-04T16:29:46.898Z,35.90
2022-08-04T16:32:23.558Z,35.90
2022-08-04T16:34:59.871Z,35.90
2022-08-04T16:37:35.259Z,35.90
2022-08-04T16:40:38.789Z,35.90
2022-08-04T16:43:09.940Z,35.90
2022-08-04T16:45:58.905Z,35.90
2022-08-04T16:48:29.067Z,35.80
2022-08-04T16:51:04.648Z,35.80
2022-08-04T16:53:57.784Z,35.80
2022-08-04T16:56:34.233Z,35.80
2022-08-04T16:59:11.098Z,35.70
2022-08-04T17:01:46.455Z,35.70
2022-08-04T17:04:15.162Z,35.70
2022-08-04T17:06:46.483Z,35.80
2022-08-04T17:09:18.723Z,35.80
2022-08-04T17:11:49.036Z,35.80
2022-08-04T17:14:23.148Z,35.70
2022-08-04T17:16:53.245Z,35.60
2022-08-04T17:19:26.102Z,35.70
2022-08-04T17:22:04.254Z,35.80
2022-08-04T17:24:36.876Z,35.80
2022-08-04T17:28:08.749Z,35.80
2022-08-04T17:29:54.103Z,35.80
2022-08-04T17:32:23.691Z,35.70
2022-08-04T17:34:54.510Z,35.70
2022-08-04T17:37:38.776Z,35.60
2022-08-04T17:40:13.435Z,35.50
2022-08-04T17:42:45.411Z,35.20
2022-08-04T17:48:10.024Z,35.10
2022-08-04T17:50:43.464Z,35.30
2022-08-04T17:53:13.164Z,35.30
2022-08-04T17:55:47.014Z,35.10
2022-08-04T17:58:22.197Z,35.20
2022-08-04T18:03:53.395Z,35.50
2022-08-04T18:06:25.866Z,35.60
2022-08-04T18:08:57.532Z,35.60
2022-08-04T18:11:29.589Z,35.60
2022-08-04T18:14:10.709Z,35.50
2022-08-04T18:16:45.366Z,35.50
2022-08-04T18:19:18.740Z,35.50
2022-08-04T18:22:00.535Z,35.40
2022-08-04T18:24:34.695Z,35.30
2022-08-04T19:12:58.249Z,33.00
2022-08-04T19:15:34.516Z,32.90
2022-08-04T19:18:07.117Z,32.70
2022-08-04T19:20:39.603Z,32.60
2022-08-04T19:28:47.407Z,32.00
2022-08-04T19:31:17.021Z,31.80
2022-08-04T19:33:58.493Z,31.60
2022-08-04T19:36:33.780Z,31.50
2022-08-04T19:39:04.220Z,31.40
2022-08-04T19:42:06.090Z,31.40
2022-08-04T19:44:30.579Z,31.40
2022-08-04T19:47:00.418Z,31.40
2022-08-04T19:50:04.909Z,31.40
2022-08-04T19:52:33.820Z,31.30
2022-08-04T19:55:08.219Z,31.30
2022-08-04T19:57:46.480Z,31.20
2022-08-04T20:00:33.961Z,31.10
2022-08-04T20:03:03.605Z,31.00
2022-08-04T20:05:54.221Z,30.20
2022-08-04T20:08:25.146Z,29.20
2022-08-04T20:10:54.643Z,29.50
2022-08-04T20:13:30.566Z,29.60
2022-08-04T20:16:28.502Z,30.00
2022-08-04T20:19:02.380Z,30.30
2022-08-04T20:21:55.671Z,30.50
2022-08-04T20:24:38.752Z,30.50
2022-08-04T20:27:14.873Z,30.50
2022-08-04T20:29:48.563Z,30.40
2022-08-04T20:32:22.126Z,30.30
2022-08-04T20:34:51.571Z,30.20
2022-08-04T20:37:23.400Z,29.90
2022-08-04T20:39:55.372Z,29.70
2022-08-04T20:42:27.158Z,29.50
2022-08-04T20:44:57.165Z,29.40
2022-08-04T20:47:26.960Z,29.40
2022-08-04T20:50:05.255Z,29.40
2022-08-04T20:52:37.993Z,29.50
2022-08-04T20:55:07.853Z,29.50
2022-08-04T20:57:49.530Z,29.60
2022-08-04T21:00:26.335Z,29.50
2022-08-04T21:03:00.287Z,29.60
2022-08-04T21:05:29.070Z,29.50
2022-08-04T21:08:00.366Z,29.50
2022-08-04T21:10:30.667Z,29.50
2022-08-04T21:12:59.460Z,29.30
2022-08-04T21:15:58.544Z,29.20
2022-08-04T21:18:17.668Z,29.10
2022-08-04T21:20:57.651Z,29.10
2022-08-04T21:23:25.943Z,29.00
2022-08-04T21:25:58.169Z,29.00
2022-08-04T21:28:26.387Z,29.00
2022-08-04T21:30:56.099Z,29.00
2022-08-04T21:33:49.002Z,29.00
2022-08-04T21:36:19.776Z,29.00
2022-08-04T21:42:19.756Z,29.00
2022-08-04T21:44:25.827Z,28.90
2022-08-04T21:46:56.055Z,28.90
2022-08-04T21:49:25.818Z,28.80
2022-08-04T21:51:59.262Z,28.70
2022-08-04T21:54:29.696Z,28.60
2022-08-04T21:56:57.983Z,28.60
2022-08-04T21:59:31.041Z,28.50
2022-08-04T22:02:02.060Z,28.50
2022-08-04T22:04:32.158Z,28.40
2022-08-04T22:07:02.891Z,28.40
2022-08-04T22:09:38.532Z,28.40
2022-08-04T22:12:12.053Z,28.30
2022-08-04T22:14:40.900Z,28.40
2022-08-04T22:17:13.681Z,28.30
2022-08-04T22:19:55.817Z,28.30
2022-08-04T22:22:27.117Z,27.80
2022-08-04T22:25:06.167Z,27.40
2022-08-04T22:28:00.912Z,27.70
2022-08-04T22:30:36.480Z,27.90
2022-08-04T22:33:08.251Z,27.60
2022-08-04T22:35:49.457Z,27.30
2022-08-04T22:38:24.365Z,27.60
2022-08-04T22:40:59.527Z,27.20
2022-08-04T22:43:33.355Z,27.40
2022-08-04T22:46:05.357Z,27.60
2022-08-04T22:48:35.952Z,27.60
2022-08-04T22:51:07.454Z,27.60
2022-08-04T22:53:36.548Z,27.50
2022-08-04T22:56:09.537Z,27.50
2022-08-04T22:58:45.276Z,27.10
2022-08-04T23:01:15.404Z,27.30
2022-08-04T23:03:55.352Z,26.60
2022-08-04T23:06:28.612Z,26.90
2022-08-04T23:08:58.019Z,26.90
2022-08-04T23:11:34.811Z,26.90
2022-08-04T23:14:04.816Z,26.80
2022-08-04T23:16:33.244Z,26.40
2022-08-04T23:19:09.549Z,26.70
2022-08-04T23:21:47.731Z,26.70
2022-08-04T23:24:29.670Z,26.70
2022-08-04T23:26:58.349Z,26.70
2022-08-04T23:29:27.469Z,26.70
2022-08-04T23:31:59.443Z,26.70
2022-08-04T23:34:29.137Z,26.60
2022-08-04T23:36:59.491Z,26.70
2022-08-04T23:40:03.992Z,26.60
2022-08-04T23:42:21.235Z,26.60
2022-08-04T23:44:50.092Z,26.50
2022-08-04T23:48:14.574Z,26.40
2022-08-04T23:50:08.145Z,26.30
2022-08-04T23:52:37.855Z,26.40
2022-08-04T23:55:07.514Z,26.20
2022-08-04T23:58:06.196Z,26.30
